Tiempo atmosférico en la estación meteorológica de Figueres, Girona (47 m.)



Fecha
DESCASC
Temp. máxima en grados centígrados (hora)
DESCASC
Temp. mínima en grados centígrados (hora)
DESCASC
Temp. media en grados centígrados
DESCASC
Racha de viento máxima en m/sg (hora)
DESCASC
Velocidad máxima media en intervalos de 10 minutos(hora)
DESCASC
Precipitaciones diarias en mm
DESCASC
Precipitaciones de 00:00 a 06:00 en mm
DESCASC
Precipitaciones de 06:00 a 12:00 en mm
DESCASC
Precipitaciones de 12:00 a 18:00 en mm
DESCASC
Precipitaciones de 18:00 a 24:00 en mm
DESCASC
17-10-2019 27.4 (15:10) 11.2 (08:40) 19.3 9.72 (14:00) 5.28 (14:10) 0 0 0 0 0
16-10-2019 25.7 (15:20) 11 (07:50) 18.4 6.94 (14:10) 3.06 (16:50) 0 0 0 0 0
15-10-2019 22.8 (14:40) 15.7 (06:30) 19.2 8.89 (08:00) 4.17 (08:00) 0.2 0.2 0 0 0
14-10-2019 24.6 (15:00) 19.3 (23:40) 21.9 6.94 (17:40) 2.78 (15:40) 0.8 0 0 0 0.8
13-10-2019 26.7 (14:20) 18.5 (00:00) 22.6 8.89 (15:50) 4.17 (16:40) 0 0 0 0 0
12-10-2019 26.5 (16:10) 16.1 (00:00) 21.3 11.39 (13:20) 6.39 (13:10) 0 0 0 0 0
11-10-2019 24.9 (15:00) 11.7 (00:00) 18.3 5 (13:30) 2.78 (15:20) 0 0 0 0 0
10-10-2019 24.6 (15:50) 15.6 (00:00) 20.1 8.89 (01:10) 3.89 (10:40) 0 0 0 0 0
09-10-2019 24.3 (12:40) 14.7 (00:00) 19.5 9.44 (20:50) 4.17 (16:00) 0 0 0 0 0
08-10-2019 25.5 (16:40) 13.9 (00:00) 19.7 5.83 (15:00) 2.78 (14:30) 0 0 0 0 0
07-10-2019 24.1 (16:50) 16.7 (00:00) 20.4 17.5 (04:20) 8.06 (05:10) 0 0 0 0 0
06-10-2019 23.7 (14:10) 18.1 (00:00) 20.9 14.44 (23:40) 5 (23:40) 0 0 0 0 0
05-10-2019 25 (14:50) 17.3 (00:00) 21.1 9.72 (07:10) 4.44 (23:50) 0 0 0 0 0
04-10-2019 25.6 (14:00) 12.7 (00:00) 19.2 6.11 (14:30) 2.78 (14:30) 0 0 0 0 0
03-10-2019 25.4 (16:30) 17.1 (00:00) 21.3 12.78 (11:50) 6.67 (11:50) 0 0 0 0 0
02-10-2019 24.1 (13:20) 17.1 (00:00) 20.6 16.67 (17:50) 6.94 (17:50) 7.4 7.4 0 0 0
01-10-2019 27.5 (14:30) 15.8 (00:00) 21.7 12.22 (22:00) 4.72 (22:00) 7.8 0 0 0 7.8
30-09-2019 27.7 (12:40) 17.7 (00:00) 22.7 7.22 (15:40) 3.33 (15:20) 0 0 0 0 0
29-09-2019 26.9 (15:10) 13.9 (00:00) 20.4 4.72 (15:20) 2.5 (17:50) 0 0 0 0 0
28-09-2019 25.8 (15:50) 17.7 (00:00) 21.8 6.94 (02:40) 3.06 (01:50) 0 0 0 0 0
27-09-2019 26.8 (14:00) 16.8 (00:00) 21.8 6.39 (15:00) 3.33 (14:40) 0 0 0 0 0
26-09-2019 25.6 (14:10) 16 (00:00) 20.8 6.11 (16:30) 3.06 (14:50) 0 0 0 0 0
25-09-2019 24.6 (16:10) 19.1 (00:00) 21.9 10 (08:30) 4.72 (08:10) 0 0 0 0 0
24-09-2019 27.7 (15:20) 15.5 (00:00) 21.6 5.83 (16:50) 3.06 (18:20) 0 0 0 0 0
23-09-2019 26.1 (14:10) 19.1 (00:00) 22.6 11.39 (01:10) 5 (00:50) 0 0 0 0 0
22-09-2019 27 (16:20) 16.7 (00:00) 21.9 11.67 (20:10) 5.28 (20:00) 0 0 0 0 0
21-09-2019 21.5 (00:00) 19 (00:00) 20.3 6.94 (10:30) 3.33 (10:30) 26.8 0 11 15.6 0.2
20-09-2019 26.4 (14:20) 18.4 (00:00) 22.4 8.06 (16:50) 3.33 (16:20) 0 0 0 0 0

Gráficas

Temp. máximas Temp. mínimas Temp. medias Precipitaciones Rachas de viento máximas Velocidades máximas media en intervalos de 10 minutos

Datos horarios

Fecha y hora oficial Temperatura (ºC) Velocidad del viento (km/h) Dirección del viento Racha (km/h) Dirección de racha Precipitación (mm) Presión (hPa) Tendencia (hPa) Humedad (%)
2019-10-19 23:00:00 19.8 6 Oeste 18 Sudoeste 0 -- -- 80
2019-10-19 22:00:00 20.5 10 Oeste 23 Sudoeste 0 -- -- 77
2019-10-19 21:00:00 21 12 Sudoeste 29 Oeste 0 -- -- 74
2019-10-19 20:00:00 21.8 15 Oeste 35 Oeste 0 -- -- 69
2019-10-19 19:00:00 23 19 Oeste 42 Sudoeste 0 -- -- 65
2019-10-19 18:00:00 25.3 17 Sudoeste 39 Sudoeste 0 -- -- 54
2019-10-19 17:00:00 26.2 22 Oeste 45 Sudoeste 0 -- -- 53
2019-10-19 16:00:00 27 22 Sudoeste 47 Sudoeste 0 -- -- 54
2019-10-19 15:00:00 27.6 26 Oeste 44 Oeste 0 -- -- 49
2019-10-19 14:00:00 28.4 16 Oeste 34 Oeste 0 -- -- 46
2019-10-19 13:00:00 27 17 Oeste 31 Oeste 0 -- -- 46
2019-10-19 12:00:00 25.5 14 Oeste 29 Oeste 0 -- -- 54
2019-10-19 11:00:00 21.6 2 Sudeste 6 Este 0 -- -- 67
2019-10-19 10:00:00 18.8 0 Calma 4 Este 0 -- -- 76
2019-10-19 09:00:00 15 0 Calma 9 Norte 0 -- -- 90
2019-10-19 08:00:00 14.7 2 Este 6 Este 0 -- -- 90
2019-10-19 07:00:00 14.6 0 Calma 10 Este 0 -- -- 89
2019-10-19 06:00:00 15.2 2 Sudeste 5 Noroeste 0 -- -- 88
2019-10-19 05:00:00 15.6 3 Este 8 Sudeste 0 -- -- 87
2019-10-19 04:00:00 16.5 2 Este 7 Sudeste 0 -- -- 83
2019-10-19 03:00:00 17 0 Calma 8 Oeste 0 -- -- 81
2019-10-19 02:00:00 16.9 2 Sudeste 6 Sudoeste 0 -- -- 81
2019-10-19 01:00:00 17.4 3 Oeste 8 Noroeste 0 -- -- 80
2019-10-19 00:00:00 17.6 3 Oeste 9 Oeste 0 -- -- 79
2019-10-18 23:00:00 17.8 3 Noroeste 8 Noroeste 0 -- -- 78
2019-10-18 22:00:00 18.3 2 Noroeste 4 Oeste 0 -- -- 75
2019-10-18 21:00:00 18.9 0 Calma 5 Norte 0 -- -- 73
2019-10-18 20:00:00 19.4 0 Calma 6 Nordeste 0 -- -- 70
2019-10-18 19:00:00 20 2 Sudeste 10 Sudeste 0 -- -- 67
2019-10-18 18:00:00 20.7 6 Sudeste 14 Sudeste 0 -- -- 66
2019-10-18 17:00:00 21.6 5 Este 13 Este 0 -- -- 66
2019-10-18 16:00:00 21.8 5 Sudeste 11 Sur 0 -- -- 64
2019-10-18 15:00:00 22.2 5 Sudeste 14 Sudeste 0 -- -- 61
2019-10-18 14:00:00 21.7 4 Sudeste 9 Sudeste 0 -- -- 58
2019-10-18 13:00:00 20.4 3 Este 8 Sudeste 0 -- -- 64
2019-10-18 12:00:00 18.8 3 Sudeste 7 Sudeste 0 -- -- 74
2019-10-18 11:00:00 16.4 3 Este 10 Sudeste 0 -- -- 82
2019-10-18 10:00:00 15.2 0 Calma 6 Noroeste 0 -- -- 86
2019-10-18 09:00:00 13.7 0 Calma 5 Norte 0 -- -- 90
2019-10-18 08:00:00 13.2 3 Noroeste 9 Noroeste 0 -- -- 91
2019-10-18 07:00:00 13.2 0 Calma 6 Noroeste 0 -- -- 91
2019-10-18 06:00:00 13.4 0 Calma 8 Noroeste 0 -- -- 90
2019-10-18 05:00:00 13.4 4 Noroeste 8 Noroeste 0 -- -- 90
2019-10-18 04:00:00 14 0 Calma 5 Oeste 0 -- -- 87
2019-10-18 03:00:00 14.9 0 Calma 3 Sur 0 -- -- 86
2019-10-18 02:00:00 15.6 4 Norte 8 Noroeste 0 -- -- 83
2019-10-18 01:00:00 16.6 3 Noroeste 8 Norte 0 -- -- 80
2019-10-18 00:00:00 17.4 2 Norte 5 Este 0 -- -- 78
2019-10-17 23:00:00 18.2 3 Norte 13 Este 0 -- -- 75
2019-10-17 22:00:00 18.6 5 Nordeste 13 Este 0 -- -- 73
2019-10-17 21:00:00 19.1 4 Nordeste 15 Nordeste 0 -- -- 71
2019-10-17 20:00:00 19.9 6 Este 18 Nordeste 0 -- -- 68
2019-10-17 19:00:00 22 3 Este 14 Sudoeste 0 -- -- 66
2019-10-17 18:00:00 23.9 10 Oeste 30 Oeste 0 -- -- 57
2019-10-17 17:00:00 25.4 15 Oeste 30 Sudoeste 0 -- -- 52
2019-10-17 16:00:00 27.1 14 Oeste 32 Oeste 0 -- -- 45
2019-10-17 15:00:00 27.2 18 Oeste 35 Oeste 0 -- -- 34
2019-10-17 14:00:00 26.5 18 Oeste 35 Oeste 0 -- -- 36
2019-10-17 13:00:00 24.1 10 Oeste 19 Sudoeste 0 -- -- 42
2019-10-17 12:00:00 20.7 7 Oeste 15 Oeste 0 -- -- 53
2019-10-17 11:00:00 17.8 4 Sudoeste 8 Sur 0 -- -- 66
2019-10-17 10:00:00 15.4 0 Calma 5 Oeste 0 -- -- 75
2019-10-17 09:00:00 11.8 0 Calma 5 Oeste 0 -- -- 89
2019-10-17 08:00:00 11.5 0 Calma 7 Noroeste 0 -- -- 90
2019-10-17 07:00:00 11.4 3 Noroeste 5 Noroeste 0 -- -- 88
2019-10-17 06:00:00 11.7 0 Calma 5 Noroeste 0 -- -- 88
2019-10-17 05:00:00 12.4 3 Noroeste 8 Norte 0 -- -- 86
2019-10-17 04:00:00 12.7 3 Noroeste 6 Noroeste 0 -- -- 85
2019-10-17 03:00:00 13.2 3 Sudoeste 4 Sur 0 -- -- 85
2019-10-17 02:00:00 14 2 Noroeste 7 Noroeste 0 -- -- 81
2019-10-17 01:00:00 14.7 5 Norte 10 Noroeste 0 -- -- 79
2019-10-17 00:00:00 16.8 5 Nordeste 14 Nordeste 0 -- -- 72
2019-10-16 23:00:00 17 9 Nordeste 21 Nordeste 0 -- -- 72
2019-10-16 22:00:00 17.1 9 Nordeste 21 Nordeste 0 -- -- 70
2019-10-16 21:00:00 17.4 6 Nordeste 14 Nordeste 0 -- -- 70
2019-10-16 20:00:00 18 6 Nordeste 15 Nordeste 0 -- -- 71
2019-10-16 19:00:00 19.2 8 Este 15 Este 0 -- -- 68
2019-10-16 18:00:00 21.3 6 Sudeste 19 Sudeste 0 -- -- 61
2019-10-16 17:00:00 22.6 8 Sudeste 22 Sudeste 0 -- -- 54
2019-10-16 16:00:00 24.9 6 Este 19 Noroeste 0 -- -- 44
2019-10-16 15:00:00 25.3 6 Noroeste 25 Oeste 0 -- -- 35
2019-10-16 14:00:00 23.9 8 Oeste 22 Sudoeste 0 -- -- 36
2019-10-16 13:00:00 21.7 5 Sudeste 16 Noroeste 0 -- -- 42
2019-10-16 12:00:00 19.9 6 Oeste 15 Sudoeste 0 -- -- 46
2019-10-16 11:00:00 17.2 3 Oeste 9 Oeste 0 -- -- 68
2019-10-16 10:00:00 13.1 4 Noroeste 11 Noroeste 0 -- -- 83
2019-10-16 09:00:00 11.6 4 Noroeste 9 Norte 0 -- -- 85
2019-10-16 08:00:00 11 2 Noroeste 8 Noroeste 0 -- -- 86
2019-10-16 07:00:00 11.3 2 Norte 6 Noroeste 0 -- -- 87
2019-10-16 06:00:00 11.6 0 Calma 8 Noroeste 0 -- -- 86
2019-10-16 05:00:00 12.1 3 Sudoeste 6 Noroeste 0 -- -- 84
2019-10-16 04:00:00 12.3 4 Noroeste 6 Noroeste 0 -- -- 83
2019-10-16 03:00:00 13.2 3 Noroeste 5 Noroeste 0 -- -- 80
2019-10-16 02:00:00 13.5 4 Norte 10 Noroeste 0 -- -- 79
2019-10-16 01:00:00 15.2 4 Norte 6 Noroeste 0 -- -- 73
2019-10-16 00:00:00 16 3 Noroeste 9 Noroeste 0 -- -- 70
2019-10-15 23:00:00 17 0 Calma 7 Sudeste 0 -- -- 66
2019-10-15 22:00:00 17.8 3 Sudoeste 6 Sudoeste 0 -- -- 60
2019-10-15 21:00:00 18.2 2 Sudoeste 11 Sudoeste 0 -- -- 59
2019-10-15 20:00:00 18.5 6 Sudoeste 15 Sur 0 -- -- 59
2019-10-15 19:00:00 18.7 10 Sudoeste 25 Sudoeste 0 -- -- 59
2019-10-15 18:00:00 20.3 10 Sudoeste 21 Sudoeste 0 -- -- 56
2019-10-15 17:00:00 20.5 9 Sur 21 Sur 0 -- -- 52
2019-10-15 16:00:00 22.2 10 Sur 23 Sur 0 -- -- 53
2019-10-15 15:00:00 22.2 6 Sudeste 18 Sudoeste 0 -- -- 46
2019-10-15 14:00:00 21.9 5 Sudoeste 15 Sudoeste 0 -- -- 48
2019-10-15 13:00:00 21.5 4 Oeste 19 Oeste 0 -- -- 51
2019-10-15 12:00:00 20 5 Oeste 16 Oeste 0 -- -- 55
2019-10-15 11:00:00 19.6 5 Norte 21 Este 0 -- -- 48
2019-10-15 10:00:00 17.3 10 Nordeste 29 Nordeste 0 -- -- 52
2019-10-15 09:00:00 16.3 14 Nordeste 31 Nordeste 0 -- -- 58
2019-10-15 08:00:00 16.1 15 Nordeste 32 Este 0 -- -- 63
2019-10-15 07:00:00 15.9 6 Nordeste 24 Este 0 -- -- 77
2019-10-15 06:00:00 16.6 11 Nordeste 21 Nordeste 0 -- -- 81
2019-10-15 05:00:00 17 4 Nordeste 8 Nordeste 0 -- -- 88
2019-10-15 04:00:00 17.4 3 Sur 12 Oeste 0.2 -- -- 87
2019-10-15 03:00:00 17.9 5 Noroeste 12 Oeste 0 -- -- 84
2019-10-15 02:00:00 18.9 6 Oeste 22 Oeste 0 -- -- 87
2019-10-15 01:00:00 19.6 12 Sudoeste 20 Oeste 0 -- -- 90
2019-10-15 00:00:00 19.4 7 Sudoeste 12 Sudoeste 0 -- -- 92
2019-10-14 23:00:00 19.9 4 Sur 8 Sur 0 -- -- 94
2019-10-14 22:00:00 20.5 4 Sudoeste 14 Oeste 0 -- -- 92
2019-10-14 21:00:00 21.2 7 Oeste 16 Sudoeste 0.8 -- -- 91
2019-10-14 20:00:00 21.6 3 Sur 14 Sudeste 0 -- -- 92
2019-10-14 19:00:00 21.9 7 Sudeste 18 Sudeste 0 -- -- 91
2019-10-14 18:00:00 22.8 8 Sur 25 Sur 0 -- -- 87
2019-10-14 17:00:00 24 8 Sur 20 Sudeste 0 -- -- 80
2019-10-14 16:00:00 24.3 9 Sur 21 Sur 0 -- -- 79
2019-10-14 15:00:00 24.6 8 Sur 19 Sur 0 -- -- 74
2019-10-14 14:00:00 24.1 8 Sur 16 Sur 0 -- -- 77
2019-10-14 13:00:00 23.9 4 Sur 12 Sur 0 -- -- 76
2019-10-14 12:00:00 23 4 Oeste 9 Sudoeste 0 -- -- 78
2019-10-14 11:00:00 21.5 4 Noroeste 9 Norte 0 -- -- 85
2019-10-14 10:00:00 20.8 4 Noroeste 8 Noroeste 0 -- -- 90
2019-10-14 09:00:00 20.1 0 Calma 4 Sudoeste 0 -- -- 93
2019-10-14 08:00:00 19.9 0 Calma 5 Sudoeste 0 -- -- 94
2019-10-14 07:00:00 19.8 3 Oeste 6 Oeste 0 -- -- 94
2019-10-14 06:00:00 19.6 2 Sudoeste 6 Sudoeste 0 -- -- 95
2019-10-14 05:00:00 19.4 2 Noroeste 6 Sur 0 -- -- 96
2019-10-14 04:00:00 19.6 3 Sudoeste 8 Sur 0 -- -- 95
2019-10-14 03:00:00 19.6 3 Sudoeste 10 Sur 0 -- -- 95
2019-10-14 02:00:00 19.4 4 Sudoeste 8 Sur 0 -- -- 95
2019-10-14 01:00:00 19.9 4 Sudoeste 6 Sudoeste 0 -- -- 93
2019-10-14 00:00:00 20.4 4 Sur 10 Sudoeste 0 -- -- 92
2019-10-13 23:00:00 20.5 5 Sudoeste 10 Sudoeste 0 -- -- 91
2019-10-13 22:00:00 20.4 5 Sudoeste 18 Sudoeste 0 -- -- 91
2019-10-13 21:00:00 20.7 9 Sudoeste 18 Sudoeste 0 -- -- 89
2019-10-13 20:00:00 21.1 9 Sudoeste 23 Sudoeste 0 -- -- 86
2019-10-13 19:00:00 21.6 12 Sudoeste 29 Sudoeste 0 -- -- 84
2019-10-13 18:00:00 22.5 12 Sur 29 Sudoeste 0 -- -- 80
2019-10-13 17:00:00 24.7 11 Sur 31 Sudoeste 0 -- -- 72
2019-10-13 16:00:00 26 13 Sur 32 Sudoeste 0 -- -- 66
2019-10-13 15:00:00 26 14 Sur 28 Sur 0 -- -- 66
2019-10-13 14:00:00 26.1 14 Sudoeste 27 Sudoeste 0 -- -- 65
2019-10-13 13:00:00 25.7 12 Sudoeste 23 Sudoeste 0 -- -- 68
2019-10-13 12:00:00 24.3 11 Sudoeste 23 Sudoeste 0 -- -- 72
2019-10-13 11:00:00 21.5 3 Sur 11 Oeste 0 -- -- 84
2019-10-13 10:00:00 19.7 4 Noroeste 9 Norte 0 -- -- 86
2019-10-13 09:00:00 19.1 4 Oeste 7 Oeste 0 -- -- 87
2019-10-13 08:00:00 18.7 4 Oeste 9 Noroeste 0 -- -- 87
2019-10-13 07:00:00 18.6 3 Norte 6 Norte 0 -- -- 88
2019-10-13 06:00:00 18.5 4 Norte 8 Norte 0 -- -- 90
2019-10-13 05:00:00 18.8 2 Noroeste 5 Sur 0 -- -- 92
2019-10-13 04:00:00 19 0 Calma 4 Oeste 0 -- -- 92
2019-10-13 03:00:00 19 0 Calma 5 Sudeste 0 -- -- 91
2019-10-13 02:00:00 19.1 0 Calma 6 Este 0 -- -- 91
2019-10-13 01:00:00 19.2 0 Calma 9 Sudoeste 0 -- -- 91
2019-10-13 00:00:00 19.6 2 Sur 9 Sur 0 -- -- 89
2019-10-12 23:00:00 19.9 4 Sudeste 10 Sudeste 0 -- -- 88
2019-10-12 22:00:00 20.2 5 Sudeste 12 Sudoeste 0 -- -- 86
2019-10-12 21:00:00 20.8 5 Sudoeste 12 Sudoeste 0 -- -- 80
2019-10-12 20:00:00 21.4 7 Sudoeste 20 Sudoeste 0 -- -- 77
2019-10-12 19:00:00 22.6 8 Sudoeste 23 Sudoeste 0 -- -- 70
2019-10-12 18:00:00 23.8 11 Sudoeste 31 Sudoeste 0 -- -- 65
2019-10-12 17:00:00 25.6 16 Sudoeste 33 Sudoeste 0 -- -- 59
2019-10-12 16:00:00 26.3 15 Sudoeste 33 Sudoeste 0 -- -- 61
2019-10-12 15:00:00 26.2 16 Sudoeste 39 Oeste 0 -- -- 60
2019-10-12 14:00:00 24.5 19 Sudoeste 41 Oeste 0 -- -- 67
2019-10-12 13:00:00 24.1 22 Oeste 39 Oeste 0 -- -- 71
2019-10-12 12:00:00 23.7 19 Oeste 37 Oeste 0 -- -- 73
2019-10-12 11:00:00 22.6 19 Oeste 35 Oeste 0 -- -- 78
2019-10-12 10:00:00 21.3 12 Sudoeste 26 Sudoeste 0 -- -- 84
2019-10-12 09:00:00 17.8 0 Calma 8 Este 0 -- -- 92
2019-10-12 08:00:00 16.6 2 Este 5 Este 0 -- -- 94
2019-10-12 07:00:00 16.1 0 Calma 5 Sudoeste 0 -- -- 94
2019-10-12 06:00:00 16.5 0 Calma 6 Noroeste 0 -- -- 94
2019-10-12 05:00:00 16.3 5 Noroeste 8 Noroeste 0 -- -- 92
2019-10-12 04:00:00 17.3 0 Calma 5 Sur 0 -- -- 90
2019-10-12 03:00:00 18 0 Calma -- -- 0 -- -- 89
2019-10-12 02:00:00 18.7 0 Calma 5 Oeste 0 -- -- 87
2019-10-12 01:00:00 19.1 0 Calma 5 Sur 0 -- -- 85
2019-10-12 00:00:00 19.9 0 Calma 7 Este 0 -- -- 82
2019-10-11 23:00:00 20.4 3 Este 9 Nordeste 0 -- -- 82
2019-10-11 22:00:00 20.2 3 Nordeste 12 Norte 0 -- -- 81
2019-10-11 21:00:00 20.2 5 Nordeste 14 Nordeste 0 -- -- 80
2019-10-11 20:00:00 20.8 7 Nordeste 17 Este 0 -- -- 78
2019-10-11 19:00:00 21.9 9 Este 17 Nordeste 0 -- -- 78
2019-10-11 18:00:00 23.5 7 Sudeste 18 Sudeste 0 -- -- 74
2019-10-11 17:00:00 24.4 8 Sudeste 17 Sur 0 -- -- 69
2019-10-11 16:00:00 24.7 8 Sudeste 17 Sudeste 0 -- -- 69
2019-10-11 15:00:00 24.9 6 Sudeste 15 Sudeste 0 -- -- 67
2019-10-11 14:00:00 23.9 5 Sudeste 18 Sur 0 -- -- 68
2019-10-11 13:00:00 23 8 Sudeste 17 Este 0 -- -- 69
2019-10-11 12:00:00 20.9 5 Sudeste 9 Sur 0 -- -- 67
2019-10-11 11:00:00 18.3 4 Este 6 Este 0 -- -- 68
2019-10-11 10:00:00 15.8 2 Sudeste 6 Este 0 -- -- 73
2019-10-11 09:00:00 12.7 0 Calma 5 Norte 0 -- -- 85
2019-10-11 08:00:00 12 4 Norte 8 Noroeste 0 -- -- 87
2019-10-11 07:00:00 12 3 Sudoeste 6 Noroeste 0 -- -- 86
2019-10-11 06:00:00 12.4 3 Noroeste 7 Norte 0 -- -- 85
2019-10-11 05:00:00 12.5 0 Calma 4 Noroeste 0 -- -- 85
2019-10-11 04:00:00 13.1 0 Calma 6 Noroeste 0 -- -- 84
2019-10-11 03:00:00 13.3 0 Calma 5 Oeste 0 -- -- 83
2019-10-11 02:00:00 13.9 0 Calma 5 Sudoeste 0 -- -- 82
2019-10-11 01:00:00 14.9 3 Noroeste 7 Noroeste 0 -- -- 79
2019-10-11 00:00:00 15.6 0 Calma 6 Sudoeste 0 -- -- 77
2019-10-10 23:00:00 17.2 3 Sudoeste 5 Sudoeste 0 -- -- 72
2019-10-10 22:00:00 18.2 0 Calma 9 Oeste 0 -- -- 68
2019-10-10 21:00:00 18.9 4 Oeste 14 Oeste 0 -- -- 66
2019-10-10 20:00:00 19.9 7 Oeste 15 Sudoeste 0 -- -- 63
2019-10-10 19:00:00 21 7 Sudoeste 15 Sudoeste 0 -- -- 54
2019-10-10 18:00:00 22.2 4 Sur 16 Sur 0 -- -- 51
2019-10-10 17:00:00 23.1 5 Sur 20 Sur 0 -- -- 49
2019-10-10 16:00:00 24.2 7 Nordeste 18 Nordeste 0 -- -- 42
2019-10-10 15:00:00 24.2 7 Norte 17 Nordeste 0 -- -- 43
2019-10-10 14:00:00 23.5 6 Nordeste 16 Nordeste 0 -- -- 45
2019-10-10 13:00:00 21.6 8 Nordeste 18 Nordeste 0 -- -- 50
2019-10-10 12:00:00 19.6 9 Nordeste 26 Nordeste 0 -- -- 57
2019-10-10 11:00:00 18.2 12 Nordeste 27 Nordeste 0 -- -- 59
2019-10-10 10:00:00 18.2 10 Nordeste 26 Norte 0 -- -- 59
2019-10-10 09:00:00 17.8 10 Nordeste 27 Nordeste 0 -- -- 62
2019-10-10 08:00:00 17.7 12 Nordeste 27 Nordeste 0 -- -- 63
2019-10-10 07:00:00 17.9 13 Nordeste 28 Nordeste 0 -- -- 61
2019-10-10 06:00:00 18 9 Nordeste 27 Nordeste 0 -- -- 60
2019-10-10 05:00:00 18 11 Nordeste 25 Nordeste 0 -- -- 59
2019-10-10 04:00:00 18.3 7 Norte 19 Noroeste 0 -- -- 58
2019-10-10 03:00:00 18.5 7 Norte 24 Este 0 -- -- 59
2019-10-10 02:00:00 18.7 11 Nordeste 32 Norte 0 -- -- 57
2019-10-10 01:00:00 18.8 10 Nordeste 29 Nordeste 0 -- -- 59
2019-10-10 00:00:00 18.6 11 Nordeste 31 Nordeste 0 -- -- 62
2019-10-09 23:00:00 19.1 12 Nordeste 31 Nordeste 0 -- -- 59
2019-10-09 22:00:00 19 13 Nordeste 30 Nordeste 0 -- -- 62
2019-10-09 21:00:00 19.2 10 Nordeste 34 Nordeste 0 -- -- 60
2019-10-09 20:00:00 19.6 14 Nordeste 32 Nordeste 0 -- -- 58
2019-10-09 19:00:00 19.7 10 Nordeste 33 Nordeste 0 -- -- 57
2019-10-09 18:00:00 19.8 13 Nordeste 28 Nordeste 0 -- -- 59
2019-10-09 17:00:00 20.5 12 Nordeste 30 Nordeste 0 -- -- 60
2019-10-09 16:00:00 20.6 15 Nordeste 32 Nordeste 0 -- -- 59
2019-10-09 15:00:00 20.8 13 Nordeste 31 Nordeste 0 -- -- 59
2019-10-09 14:00:00 21.5 8 Nordeste 22 Norte 0 -- -- 60
2019-10-09 13:00:00 23.3 4 Sur 15 Sur 0 -- -- 66
2019-10-09 12:00:00 23.2 5 Sur 13 Sudoeste 0 -- -- 67
2019-10-09 11:00:00 22 6 Sur 13 Sur 0 -- -- 71
2019-10-09 10:00:00 19.4 3 Este 9 Este 0 -- -- 75
2019-10-09 09:00:00 16.5 0 Calma 8 Nordeste 0 -- -- 86
2019-10-09 08:00:00 14.9 3 Noroeste 5 Noroeste 0 -- -- 90
2019-10-09 07:00:00 15 0 Calma 4 Sur 0 -- -- 90
2019-10-09 06:00:00 15.5 0 Calma 6 Norte 0 -- -- 87
2019-10-09 05:00:00 16.2 4 Noroeste 6 Noroeste 0 -- -- 85
2019-10-09 04:00:00 16.7 2 Noroeste 6 Noroeste 0 -- -- 86
2019-10-09 03:00:00 17.4 0 Calma 6 Norte 0 -- -- 84
2019-10-09 02:00:00 18.3 3 Norte 9 Nordeste 0 -- -- 85
2019-10-09 01:00:00 18.8 2 Norte 9 Nordeste 0 -- -- 81
2019-10-09 00:00:00 19.6 5 Nordeste 11 Nordeste 0 -- -- 75
2019-10-08 23:00:00 20.3 6 Nordeste 18 Norte 0 -- -- 73
2019-10-08 22:00:00 20.7 7 Nordeste 17 Norte 0 -- -- 71
2019-10-08 21:00:00 21.3 8 Nordeste 18 Nordeste 0 -- -- 70
2019-10-08 20:00:00 22.6 9 Nordeste 18 Nordeste 0 -- -- 67
2019-10-08 19:00:00 24.2 8 Este 15 Nordeste 0 -- -- 66
2019-10-08 18:00:00 25.3 7 Este 14 Sudeste 0 -- -- 62
2019-10-08 17:00:00 25.5 7 Sudeste 18 Sudeste 0 -- -- 61
2019-10-08 16:00:00 24.7 9 Sudeste 19 Sur 0 -- -- 65
2019-10-08 15:00:00 24.2 9 Sudeste 21 Sudeste 0 -- -- 65
2019-10-08 14:00:00 24 10 Sudeste 20 Sudeste 0 -- -- 55
2019-10-08 13:00:00 24.2 5 Sur 12 Sur 0 -- -- 49
2019-10-08 12:00:00 22.6 4 Sur 10 Sudeste 0 -- -- 51
2019-10-08 11:00:00 20.3 4 Sudeste 9 Sudeste 0 -- -- 57
2019-10-08 10:00:00 18.4 2 Sudeste 5 Sur 0 -- -- 61
2019-10-08 09:00:00 16 3 Sur 7 Noroeste 0 -- -- 69
2019-10-08 08:00:00 14.4 4 Noroeste 10 Noroeste 0 -- -- 73
2019-10-08 07:00:00 14.7 4 Noroeste 9 Noroeste 0 -- -- 68
2019-10-08 06:00:00 14.3 0 Calma 7 Noroeste 0 -- -- 68
2019-10-08 05:00:00 13.9 3 Noroeste 9 Noroeste 0 -- -- 69
2019-10-08 04:00:00 14.2 4 Noroeste 6 Noroeste 0 -- -- 68
2019-10-08 03:00:00 15 0 Calma 8 Sudoeste 0 -- -- 67
2019-10-08 02:00:00 16.4 4 Sur 8 Norte 0 -- -- 64
2019-10-08 01:00:00 17.5 3 Norte 11 Norte 0 -- -- 55
2019-10-08 00:00:00 17.7 5 Norte 13 Norte 0 -- -- 59
2019-10-07 23:00:00 17.5 4 Norte 10 Oeste 0 -- -- 53
2019-10-07 22:00:00 19.3 4 Noroeste 32 Nordeste 0 -- -- 47
2019-10-07 21:00:00 20.2 12 Este 31 Nordeste 0 -- -- 44
2019-10-07 20:00:00 21 6 Noroeste 48 Nordeste 0 -- -- 43
2019-10-07 19:00:00 22.1 25 Nordeste 50 Nordeste 0 -- -- 39
2019-10-07 18:00:00 23.3 22 Nordeste 51 Nordeste 0 -- -- 36
2019-10-07 17:00:00 24 24 Nordeste 44 Nordeste 0 -- -- 32
2019-10-07 16:00:00 23.1 12 Nordeste 31 Norte 0 -- -- 36
2019-10-07 15:00:00 23.7 12 Nordeste 37 Nordeste 0 -- -- 36
2019-10-07 14:00:00 22 16 Nordeste 37 Nordeste 0 -- -- 40
2019-10-07 13:00:00 20.6 8 Nordeste 52 Nordeste 0 -- -- 45
2019-10-07 12:00:00 21.3 14 Nordeste 42 Nordeste 0 -- -- 41
2019-10-07 11:00:00 19.9 18 Norte 52 Nordeste 0 -- -- 45
2019-10-07 10:00:00 18 10 Nordeste 47 Nordeste 0 -- -- 50
2019-10-07 09:00:00 18 8 Sudeste 43 Nordeste 0 -- -- 52
2019-10-07 08:00:00 16.8 12 Este 49 Nordeste 0 -- -- 56
2019-10-07 07:00:00 17 17 Nordeste 53 Norte 0 -- -- 55
2019-10-07 06:00:00 17.3 23 Nordeste 62 Nordeste 0 -- -- 52
2019-10-07 05:00:00 17.7 23 Nordeste 63 Nordeste 0 -- -- 51
2019-10-07 04:00:00 17.8 22 Nordeste 56 Nordeste 0 -- -- 52
2019-10-07 03:00:00 17.7 22 Nordeste 54 Nordeste 0 -- -- 56
2019-10-07 02:00:00 18.2 19 Norte 53 Norte 0 -- -- 58
2019-10-07 01:00:00 18.8 17 Nordeste 46 Nordeste 0 -- -- 57
2019-10-07 00:00:00 18.9 15 Nordeste 52 Nordeste 0 -- -- 63
2019-10-06 23:00:00 19.7 5 Este 14 Norte 0 -- -- 65
2019-10-06 22:00:00 19.5 3 Nordeste 8 Este 0 -- -- 72
2019-10-06 21:00:00 19.9 0 Calma 6 Oeste 0 -- -- 70
2019-10-06 20:00:00 19.9 4 Oeste 8 Sur 0 -- -- 69
2019-10-06 19:00:00 20.4 5 Sudoeste 13 Sudoeste 0 -- -- 66
2019-10-06 18:00:00 21.2 6 Sur 13 Sur 0 -- -- 63
2019-10-06 17:00:00 21.8 6 Sudoeste 15 Sudoeste 0 -- -- 62
2019-10-06 16:00:00 22.6 7 Sudoeste 15 Sudoeste 0 -- -- 61
2019-10-06 15:00:00 23.2 2 Sudoeste 9 Noroeste 0 -- -- 58
2019-10-06 14:00:00 23.3 4 Sudoeste 15 Sudoeste 0 -- -- 57
2019-10-06 13:00:00 23.1 6 Sudoeste 15 Oeste 0 -- -- 57
2019-10-06 12:00:00 22.5 3 Noroeste 11 Norte 0 -- -- 56
2019-10-06 11:00:00 20.5 4 Norte 10 Norte 0 -- -- 61
2019-10-06 10:00:00 19 4 Noroeste 12 Nordeste 0 -- -- 66
2019-10-06 09:00:00 18.7 6 Nordeste 22 Norte 0 -- -- 64
2019-10-06 08:00:00 18.4 8 Nordeste 20 Nordeste 0 -- -- 64
2019-10-06 07:00:00 18.5 9 Nordeste 23 Norte 0 -- -- 64
2019-10-06 06:00:00 18.4 8 Norte 21 Norte 0 -- -- 65
2019-10-06 05:00:00 18.1 9 Nordeste 24 Nordeste 0 -- -- 66
2019-10-06 04:00:00 18.3 8 Nordeste 23 Nordeste 0 -- -- 66
2019-10-06 03:00:00 18.2 9 Nordeste 21 Nordeste 0 -- -- 66
2019-10-06 02:00:00 18.1 10 Nordeste 22 Nordeste 0 -- -- 66
2019-10-06 01:00:00 18.3 12 Nordeste 28 Nordeste 0 -- -- 66
2019-10-06 00:00:00 19 15 Nordeste 28 Nordeste 0 -- -- 63
2019-10-05 23:00:00 19.2 8 Nordeste 17 Nordeste 0 -- -- 62
2019-10-05 22:00:00 19.3 4 Nordeste 14 Nordeste 0 -- -- 68
2019-10-05 21:00:00 20.3 5 Norte 13 Norte 0 -- -- 63
2019-10-05 20:00:00 20.9 3 Oeste 15 Oeste 0 -- -- 63
2019-10-05 19:00:00 22 9 Oeste 22 Sudoeste 0 -- -- 59
2019-10-05 18:00:00 23.2 6 Sudoeste 14 Sudoeste 0 -- -- 55
2019-10-05 17:00:00 23.8 8 Sudoeste 19 Sudoeste 0 -- -- 54
2019-10-05 16:00:00 24.5 5 Sudeste 13 Sudeste 0 -- -- 53
2019-10-05 15:00:00 25 6 Sudeste 12 Sudoeste 0 -- -- 51
2019-10-05 14:00:00 24.6 3 Oeste 19 Noroeste 0 -- -- 51
2019-10-05 13:00:00 23.4 4 Noroeste 26 Norte 0 -- -- 57
2019-10-05 12:00:00 22.2 8 Norte 29 Nordeste 0 -- -- 56
2019-10-05 11:00:00 20.1 12 Nordeste 27 Nordeste 0 -- -- 61
2019-10-05 10:00:00 18.8 14 Nordeste 33 Nordeste 0 -- -- 64
2019-10-05 09:00:00 18.2 13 Nordeste 34 Nordeste 0 -- -- 68
2019-10-05 08:00:00 18.3 14 Nordeste 35 Nordeste 0 -- -- 68
2019-10-05 07:00:00 18.5 13 Nordeste 32 Nordeste 0 -- -- 68
2019-10-05 06:00:00 18.6 6 Norte 14 Nordeste 0 -- -- 70
2019-10-05 05:00:00 18.3 5 Nordeste 15 Nordeste 0 -- -- 72
2019-10-05 04:00:00 17.3 0 Calma 12 Nordeste 0 -- -- 76
2019-10-05 03:00:00 18.2 7 Norte 18 Nordeste 0 -- -- 72
2019-10-05 02:00:00 19.2 6 Norte 20 Nordeste 0 -- -- 72
2019-10-05 01:00:00 19.8 13 Nordeste 25 Norte 0 -- -- 70
2019-10-05 00:00:00 19.7 0 Calma 6 Oeste 0 -- -- 79
2019-10-04 23:00:00 20.4 3 Oeste 6 Noroeste 0 -- -- 81
2019-10-04 22:00:00 20.8 3 Oeste 6 Sudoeste 0 -- -- 81
2019-10-04 21:00:00 21.4 0 Calma 12 Sudeste 0 -- -- 76
2019-10-04 20:00:00 21.8 6 Este 13 Este 0 -- -- 71
2019-10-04 19:00:00 21.9 5 Sudeste 18 Este 0 -- -- 76
2019-10-04 18:00:00 22.7 8 Sudeste 19 Sudeste 0 -- -- 74
2019-10-04 17:00:00 24.4 10 Sudeste 18 Sudeste 0 -- -- 68
2019-10-04 16:00:00 24.7 7 Sudeste 20 Sudeste 0 -- -- 63
2019-10-04 15:00:00 24.4 9 Sur 22 Sudeste 0 -- -- 61
2019-10-04 14:00:00 25.6 8 Sudoeste 17 Sur 0 -- -- 54
2019-10-04 13:00:00 23.7 4 Sudoeste 10 Sur 0 -- -- 58
2019-10-04 12:00:00 22.3 6 Sudoeste 12 Sudoeste 0 -- -- 61
2019-10-04 11:00:00 20.4 4 Sudoeste 9 Sur 0 -- -- 64
2019-10-04 10:00:00 17.5 0 Calma 9 Noroeste 0 -- -- 72
2019-10-04 09:00:00 13.7 4 Noroeste 7 Noroeste 0 -- -- 84
2019-10-04 08:00:00 12.7 3 Noroeste 6 Noroeste 0 -- -- 86
2019-10-04 07:00:00 13.2 0 Calma 8 Noroeste 0 -- -- 84
2019-10-04 06:00:00 12.8 5 Noroeste 10 Noroeste 0 -- -- 86
2019-10-04 05:00:00 13.2 4 Noroeste 7 Noroeste 0 -- -- 84
2019-10-04 04:00:00 13.8 0 Calma 8 Noroeste 0 -- -- 81
2019-10-04 03:00:00 15.5 4 Noroeste 10 Noroeste 0 -- -- 74
2019-10-04 02:00:00 17.8 4 Norte 18 Nordeste 0 -- -- 63
2019-10-04 01:00:00 18 5 Norte 18 Nordeste 0 -- -- 63
2019-10-04 00:00:00 17.8 5 Noroeste 14 Nordeste 0 -- -- 66
2019-10-03 23:00:00 18.5 5 Norte 14 Nordeste 0 -- -- 63
2019-10-03 22:00:00 18.4 0 Calma 9 Este 0 -- -- 71
2019-10-03 21:00:00 19.3 2 Sudeste 8 Este 0 -- -- 66
2019-10-03 20:00:00 20.3 4 Sur 14 Sur 0 -- -- 59
2019-10-03 19:00:00 21.6 5 Sudoeste 17 Sur 0 -- -- 53
2019-10-03 18:00:00 22.8 7 Sur 21 Sur 0 -- -- 49
2019-10-03 17:00:00 24.7 5 Sur 9 Sur 0 -- -- 42
2019-10-03 16:00:00 25.1 4 Este 17 Este 0 -- -- 41
2019-10-03 15:00:00 24.3 8 Nordeste 28 Nordeste 0 -- -- 42
2019-10-03 14:00:00 23.7 15 Nordeste 36 Nordeste 0 -- -- 43
2019-10-03 13:00:00 21.9 12 Norte 38 Norte 0 -- -- 49
2019-10-03 12:00:00 20.4 20 Nordeste 46 Nordeste 0 -- -- 53
2019-10-03 11:00:00 19.1 15 Nordeste 38 Nordeste 0 -- -- 57
2019-10-03 10:00:00 18.1 17 Nordeste 35 Nordeste 0 -- -- 59
2019-10-03 09:00:00 17.4 16 Nordeste 34 Nordeste 0 -- -- 64
2019-10-03 08:00:00 17.1 14 Nordeste 40 Norte 0 -- -- 65
2019-10-03 07:00:00 17.2 15 Nordeste 33 Nordeste 0 -- -- 65
2019-10-03 06:00:00 17.6 17 Nordeste 40 Norte 0 -- -- 63
2019-10-03 05:00:00 18 17 Nordeste 39 Nordeste 0 -- -- 61
2019-10-03 04:00:00 18.4 19 Nordeste 40 Nordeste 0 -- -- 61
2019-10-03 03:00:00 18.5 18 Nordeste 37 Norte 0 -- -- 61
2019-10-03 02:00:00 18.8 21 Nordeste 45 Nordeste 0 -- -- 61
2019-10-03 01:00:00 18.8 17 Nordeste 40 Nordeste 0 -- -- 61
2019-10-03 00:00:00 19.7 19 Nordeste 41 Nordeste 0 -- -- 56
2019-10-02 23:00:00 20.3 12 Norte 42 Nordeste 0 -- -- 56
2019-10-02 22:00:00 20.3 17 Nordeste 40 Nordeste 0 -- -- 55
2019-10-02 21:00:00 20.5 16 Norte 40 Este 0 -- -- 55
2019-10-02 20:00:00 21.1 20 Nordeste 52 Nordeste 0 -- -- 54
2019-10-02 19:00:00 22 20 Nordeste 52 Nordeste 0 -- -- 50
2019-10-02 18:00:00 22.5 20 Nordeste 60 Nordeste 0 -- -- 49
2019-10-02 17:00:00 23 16 Nordeste 51 Nordeste 0 -- -- 49
2019-10-02 16:00:00 23.3 23 Nordeste 53 Nordeste 0 -- -- 50
2019-10-02 15:00:00 23.3 24 Nordeste 46 Nordeste 0 -- -- 51
2019-10-02 14:00:00 23.5 23 Nordeste 48 Nordeste 0 -- -- 53
2019-10-02 13:00:00 24 13 Nordeste 31 Nordeste 0 -- -- 50
2019-10-02 12:00:00 23.5 12 Nordeste 28 Nordeste 0 -- -- 50
2019-10-02 11:00:00 22.5 10 Nordeste 31 Norte 0 -- -- 53
2019-10-02 10:00:00 20.9 7 Norte 33 Norte 0 -- -- 57
2019-10-02 09:00:00 19.1 8 Norte 27 Nordeste 0 -- -- 63
2019-10-02 08:00:00 18.1 8 Noroeste 33 Norte 0 -- -- 65
2019-10-02 07:00:00 18.8 16 Nordeste 35 Nordeste 0 -- -- 63
2019-10-02 06:00:00 18.7 13 Nordeste 28 Nordeste 0 -- -- 64
2019-10-02 05:00:00 17.6 7 Nordeste 19 Norte 0 -- -- 73
2019-10-02 04:00:00 17.4 7 Norte 30 Norte 2 -- -- 86
2019-10-02 03:00:00 17.9 8 Norte 26 Nordeste 0.4 -- -- 80
2019-10-02 02:00:00 17.3 11 Nordeste 44 Nordeste 4.8 -- -- 85
2019-10-02 01:00:00 18.7 11 Nordeste 44 Nordeste 0.2 -- -- 77
2019-10-02 00:00:00 18.5 14 Nordeste 42 Nordeste 1.4 -- -- 80
2019-10-01 23:00:00 19.1 15 Nordeste 38 Nordeste 2.4 -- -- 79
2019-10-01 22:00:00 19.8 17 Nordeste 44 Nordeste 4 -- -- 84
2019-10-01 21:00:00 22.9 9 Este 28 Nordeste 0 -- -- 72
2019-10-01 20:00:00 22.8 4 Sudeste 14 Este 0 -- -- 83
2019-10-01 19:00:00 24.1 5 Sudeste 14 Sudeste 0 -- -- 72
2019-10-01 18:00:00 25.3 6 Sudeste 17 Sudeste 0 -- -- 71
2019-10-01 17:00:00 25.8 8 Sudeste 20 Sudeste 0 -- -- 69
2019-10-01 16:00:00 26.8 8 Sudeste 19 Sudeste 0 -- -- 62
2019-10-01 15:00:00 27.4 7 Sudeste 19 Sudeste 0 -- -- 59
2019-10-01 14:00:00 27.1 6 Sur 21 Sudeste 0 -- -- 59
2019-10-01 13:00:00 26.7 4 Sur 12 Sudeste 0 -- -- 60
2019-10-01 12:00:00 25.1 4 Sur 9 Sudoeste 0 -- -- 64
2019-10-01 11:00:00 23.3 3 Este 6 Este 0 -- -- 69
2019-10-01 10:00:00 20.6 3 Este 5 Este 0 -- -- 76
2019-10-01 09:00:00 17.7 0 Calma 5 Noroeste 0 -- -- 87
2019-10-01 08:00:00 15.8 4 Noroeste 7 Noroeste 0 -- -- 91
2019-10-01 07:00:00 16.1 0 Calma 4 Sudoeste 0 -- -- 92
2019-10-01 06:00:00 17.1 3 Sudoeste 8 Norte 0 -- -- 90
2019-10-01 05:00:00 17.2 4 Noroeste 10 Noroeste 0 -- -- 91
2019-10-01 04:00:00 17.1 3 Noroeste 6 Noroeste 0 -- -- 91
2019-10-01 03:00:00 17.5 0 Calma 3 Sudoeste 0 -- -- 90
2019-10-01 02:00:00 17.8 0 Calma 5 Sur 0 -- -- 89
2019-10-01 01:00:00 18.6 0 Calma 6 Noroeste 0 -- -- 89
2019-10-01 00:00:00 19.4 3 Sudoeste 7 Norte 0 -- -- 89
2019-09-30 23:00:00 20.1 2 Norte 6 Oeste 0 -- -- 87
2019-09-30 22:00:00 20.8 4 Noroeste 8 Nordeste 0 -- -- 86
2019-09-30 21:00:00 21.2 4 Nordeste 8 Sudeste 0 -- -- 86
2019-09-30 20:00:00 21.4 3 Sudeste 15 Sudeste 0 -- -- 86
2019-09-30 19:00:00 22.4 9 Sudeste 18 Sur 0 -- -- 80
2019-09-30 18:00:00 24.1 9 Sur 24 Sudeste 0 -- -- 71
2019-09-30 17:00:00 25.3 10 Sur 25 Sudeste 0 -- -- 61
2019-09-30 16:00:00 26 9 Sudeste 26 Sur 0 -- -- 58
2019-09-30 15:00:00 26.4 11 Sur 23 Sudoeste 0 -- -- 55
2019-09-30 14:00:00 27.5 8 Sudeste 19 Sur 0 -- -- 51
2019-09-30 13:00:00 27.5 7 Sur 22 Sudeste 0 -- -- 51
2019-09-30 12:00:00 26.5 4 Sudeste 9 Sur 0 -- -- 50
2019-09-30 11:00:00 24.8 6 Este 10 Nordeste 0 -- -- 60
2019-09-30 10:00:00 22.8 2 Sur 5 Sur 0 -- -- 63
2019-09-30 09:00:00 19.4 0 Calma 8 Noroeste 0 -- -- 70
2019-09-30 08:00:00 17.7 4 Noroeste 8 Oeste 0 -- -- 73
2019-09-30 07:00:00 18.1 3 Noroeste 9 Noroeste 0 -- -- 70
2019-09-30 06:00:00 21.1 3 Sudeste 19 Nordeste 0 -- -- 63
2019-09-30 05:00:00 21.1 4 Noroeste 17 Nordeste 0 -- -- 64
2019-09-30 04:00:00 20.4 4 Nordeste 13 Nordeste 0 -- -- 66
2019-09-30 03:00:00 19.5 0 Calma 13 Nordeste 0 -- -- 72
2019-09-30 02:00:00 20.9 7 Nordeste 15 Nordeste 0 -- -- 61
2019-09-30 01:00:00 18.9 3 Norte 8 Nordeste 0 -- -- 84
2019-09-30 00:00:00 19.5 4 Sudoeste 8 Sudoeste 0 -- -- 82
2019-09-29 23:00:00 20.3 0 Calma 4 Noroeste 0 -- -- 80
2019-09-29 22:00:00 21.1 2 Noroeste 6 Noroeste 0 -- -- 77
2019-09-29 21:00:00 22.1 4 Noroeste 7 Noroeste 0 -- -- 73
2019-09-29 20:00:00 22.9 5 Oeste 9 Oeste 0 -- -- 69
2019-09-29 19:00:00 24.1 5 Sudoeste 14 Sudoeste 0 -- -- 68
2019-09-29 18:00:00 25.2 7 Sur 16 Sur 0 -- -- 66
2019-09-29 17:00:00 26.4 6 Sudeste 16 Sudeste 0 -- -- 63
2019-09-29 16:00:00 26.7 6 Sudeste 17 Sudeste 0 -- -- 58
2019-09-29 15:00:00 26.6 8 Sudeste 15 Sudeste 0 -- -- 58
2019-09-29 14:00:00 26.1 6 Sudeste 14 Sur 0 -- -- 59
2019-09-29 13:00:00 25 7 Sudeste 14 Este 0 -- -- 61
2019-09-29 12:00:00 23.7 2 Sur 8 Este 0 -- -- 63
2019-09-29 11:00:00 22.2 4 Sudeste 6 Este 0 -- -- 64
2019-09-29 10:00:00 19.5 0 Calma 5 Oeste 0 -- -- 71
2019-09-29 09:00:00 15.7 0 Calma 3 Noroeste 0 -- -- 84
2019-09-29 08:00:00 14.3 0 Calma 4 Sur 0 -- -- 88
2019-09-29 07:00:00 14.2 0 Calma 9 Noroeste 0 -- -- 89
2019-09-29 06:00:00 14.2 3 Noroeste 6 Noroeste 0 -- -- 86
2019-09-29 05:00:00 14.7 0 Calma 6 Norte 0 -- -- 85
2019-09-29 04:00:00 15.1 2 Noroeste 6 Noroeste 0 -- -- 83
2019-09-29 03:00:00 15.7 2 Sudoeste 6 Noroeste 0 -- -- 82
2019-09-29 02:00:00 16.2 0 Calma 6 Noroeste 0 -- -- 79
2019-09-29 01:00:00 16.5 4 Noroeste 6 Noroeste 0 -- -- 78
2019-09-29 00:00:00 17.7 3 Noroeste 6 Sur 0 -- -- 73
2019-09-28 23:00:00 19 2 Norte 4 Norte 0 -- -- 69
2019-09-28 22:00:00 19.8 0 Calma 4 Sudoeste 0 -- -- 67
2019-09-28 21:00:00 20.4 0 Calma 10 Sudoeste 0 -- -- 61
2019-09-28 20:00:00 21 6 Sudoeste 14 Sur 0 -- -- 63
2019-09-28 19:00:00 22.4 9 Sudoeste 14 Sudoeste 0 -- -- 63
2019-09-28 18:00:00 24 8 Sur 21 Sur 0 -- -- 50
2019-09-28 17:00:00 25.3 8 Sur 21 Sudeste 0 -- -- 49
2019-09-28 16:00:00 25.7 8 Sur 20 Sur 0 -- -- 49
2019-09-28 15:00:00 25.5 9 Sur 18 Sur 0 -- -- 52
2019-09-28 14:00:00 25.3 8 Sur 18 Sur 0 -- -- 54
2019-09-28 13:00:00 24.9 4 Sur 10 Sur 0 -- -- 56
2019-09-28 12:00:00 24.4 4 Sur 10 Sur 0 -- -- 55
2019-09-28 11:00:00 23.6 5 Sudeste 10 Sudeste 0 -- -- 56
2019-09-28 10:00:00 23.5 6 Nordeste 11 Nordeste 0 -- -- 58
2019-09-28 09:00:00 21.3 5 Nordeste 13 Nordeste 0 -- -- 64
2019-09-28 08:00:00 21 6 Nordeste 15 Nordeste 0 -- -- 63
2019-09-28 07:00:00 20.9 6 Nordeste 15 Nordeste 0 -- -- 68
2019-09-28 06:00:00 21.4 5 Nordeste 12 Norte 0 -- -- 61
2019-09-28 05:00:00 21.5 4 Norte 16 Norte 0 -- -- 63
2019-09-28 04:00:00 22.1 5 Norte 23 Nordeste 0 -- -- 62
2019-09-28 03:00:00 22.1 9 Nordeste 25 Norte 0 -- -- 61
2019-09-28 02:00:00 22.5 10 Nordeste 22 Nordeste 0 -- -- 62
2019-09-28 01:00:00 21.5 4 Este 10 Nordeste 0 -- -- 82
2019-09-28 00:00:00 21.5 0 Calma 6 Noroeste 0 -- -- 81
2019-09-27 23:00:00 21.3 4 Noroeste 8 Oeste 0 -- -- 83
2019-09-27 22:00:00 21.6 3 Oeste 6 Sur 0 -- -- 84
2019-09-27 21:00:00 21.8 3 Sudoeste 7 Sur 0 -- -- 83
2019-09-27 20:00:00 22 4 Sudoeste 9 Sudoeste 0 -- -- 81
2019-09-27 19:00:00 22.2 4 Sur 10 Sur 0 -- -- 78
2019-09-27 18:00:00 22.7 6 Sudoeste 14 Sur 0 -- -- 76
2019-09-27 17:00:00 23.7 9 Sur 20 Sur 0 -- -- 71
2019-09-27 16:00:00 24.8 9 Sur 20 Sudeste 0 -- -- 61
2019-09-27 15:00:00 25.7 10 Sur 23 Sur 0 -- -- 56
2019-09-27 14:00:00 26.8 8 Sur 20 Sudeste 0 -- -- 52
2019-09-27 13:00:00 26.4 7 Sudeste 14 Sudeste 0 -- -- 53
2019-09-27 12:00:00 25.8 6 Sudoeste 14 Sur 0 -- -- 54
2019-09-27 11:00:00 24.4 4 Sudoeste 8 Sudoeste 0 -- -- 60
2019-09-27 10:00:00 21.8 0 Calma 5 Sudoeste 0 -- -- 75
2019-09-27 09:00:00 19 0 Calma 4 Noroeste 0 -- -- 84
2019-09-27 08:00:00 16.8 3 Norte 5 Noroeste 0 -- -- 89
2019-09-27 07:00:00 17.1 0 Calma 5 Noroeste 0 -- -- 89
2019-09-27 06:00:00 17.1 3 Noroeste 5 Oeste 0 -- -- 90
2019-09-27 05:00:00 17.4 0 Calma 3 Sudeste 0 -- -- 89
2019-09-27 04:00:00 18 0 Calma 4 Este 0 -- -- 89
2019-09-27 03:00:00 18.3 0 Calma 5 Nordeste 0 -- -- 89
2019-09-27 02:00:00 18.8 3 Nordeste 6 Este 0 -- -- 87
2019-09-27 01:00:00 19.3 3 Sudoeste 5 Oeste 0 -- -- 85
2019-09-27 00:00:00 19.4 4 Noroeste 9 Noroeste 0 -- -- 85
2019-09-26 23:00:00 20.3 2 Oeste 9 Nordeste 0 -- -- 81
2019-09-26 22:00:00 20.6 5 Nordeste 10 Nordeste 0 -- -- 82
2019-09-26 21:00:00 21.1 0 Calma 6 Sudoeste 0 -- -- 81
2019-09-26 20:00:00 21.4 4 Sudoeste 10 Sur 0 -- -- 79
2019-09-26 19:00:00 22.7 5 Sudeste 19 Sudeste 0 -- -- 72
2019-09-26 18:00:00 23.8 9 Sudeste 19 Sur 0 -- -- 68
2019-09-26 17:00:00 25.2 9 Sur 22 Sudeste 0 -- -- 64
2019-09-26 16:00:00 25.1 10 Sur 22 Sudeste 0 -- -- 63
2019-09-26 15:00:00 25.2 9 Sur 21 Sudeste 0 -- -- 57
2019-09-26 14:00:00 25.4 9 Sudeste 20 Sudeste 0 -- -- 56
2019-09-26 13:00:00 24.7 5 Sur 17 Sur 0 -- -- 57
2019-09-26 12:00:00 24.1 3 Sur 15 Sudeste 0 -- -- 62
2019-09-26 11:00:00 22.7 4 Este 10 Sur 0 -- -- 64
2019-09-26 10:00:00 21.1 0 Calma 4 Sur 0 -- -- 66
2019-09-26 09:00:00 18 0 Calma 4 Sudoeste 0 -- -- 79
2019-09-26 08:00:00 16.1 0 Calma 8 Oeste 0 -- -- 85
2019-09-26 07:00:00 16.4 3 Noroeste 7 Sudeste 0 -- -- 85
2019-09-26 06:00:00 17.1 2 Este 9 Este 0 -- -- 82
2019-09-26 05:00:00 17.4 3 Nordeste 10 Oeste 0 -- -- 80
2019-09-26 04:00:00 18.4 3 Noroeste 9 Noroeste 0 -- -- 76
2019-09-26 03:00:00 18.7 3 Nordeste 8 Nordeste 0 -- -- 74
2019-09-26 02:00:00 18.9 2 Nordeste 5 Nordeste 0 -- -- 75
2019-09-26 01:00:00 19.2 0 Calma 5 Nordeste 0 -- -- 74
2019-09-26 00:00:00 20 0 Calma 5 Oeste 0 -- -- 70
2019-09-25 23:00:00 20.7 0 Calma 6 Noroeste 0 -- -- 67
2019-09-25 22:00:00 21.3 3 Noroeste 5 Noroeste 0 -- -- 63
2019-09-25 21:00:00 21.7 3 Noroeste 6 Oeste 0 -- -- 61
2019-09-25 20:00:00 22.5 0 Calma 8 Nordeste 0 -- -- 56
2019-09-25 19:00:00 23 5 Nordeste 17 Nordeste 0 -- -- 54
2019-09-25 18:00:00 23.4 9 Nordeste 20 Norte 0 -- -- 52
2019-09-25 17:00:00 23.7 9 Nordeste 25 Norte 0 -- -- 52
2019-09-25 16:00:00 24.5 10 Nordeste 28 Nordeste 0 -- -- 50
2019-09-25 15:00:00 23.1 13 Nordeste 27 Nordeste 0 -- -- 55
2019-09-25 14:00:00 21.8 12 Nordeste 32 Nordeste 0 -- -- 57
2019-09-25 13:00:00 21.4 15 Nordeste 34 Nordeste 0 -- -- 56
2019-09-25 12:00:00 20.5 13 Nordeste 27 Nordeste 0 -- -- 60
2019-09-25 11:00:00 20.5 13 Nordeste 27 Nordeste 0 -- -- 58
2019-09-25 10:00:00 20.6 13 Nordeste 27 Nordeste 0 -- -- 55
2019-09-25 09:00:00 20.3 14 Nordeste 36 Nordeste 0 -- -- 56
2019-09-25 08:00:00 19.8 14 Nordeste 27 Nordeste 0 -- -- 64
2019-09-25 07:00:00 19.7 12 Nordeste 29 Nordeste 0 -- -- 63
2019-09-25 06:00:00 19.9 14 Nordeste 27 Nordeste 0 -- -- 61
2019-09-25 05:00:00 20.2 11 Nordeste 28 Nordeste 0 -- -- 57
2019-09-25 04:00:00 20.2 11 Nordeste 26 Nordeste 0 -- -- 65
2019-09-25 03:00:00 20.3 10 Nordeste 27 Nordeste 0 -- -- 68
2019-09-25 02:00:00 20.8 13 Nordeste 29 Nordeste 0 -- -- 72
2019-09-25 01:00:00 19.1 2 Nordeste 6 Este 0 -- -- 86
2019-09-25 00:00:00 19.9 0 Calma 4 Noroeste 0 -- -- 85
2019-09-24 23:00:00 20.5 0 Calma 5 Oeste 0 -- -- 84
2019-09-24 22:00:00 20.5 0 Calma 7 Sudoeste 0 -- -- 85
2019-09-24 21:00:00 20.7 2 Sudoeste 6 Sudoeste 0 -- -- 84
2019-09-24 20:00:00 21.2 5 Sudoeste 13 Sur 0 -- -- 83
2019-09-24 19:00:00 22.8 6 Sudoeste 18 Sudoeste 0 -- -- 77
2019-09-24 18:00:00 24.7 10 Sudoeste 19 Sudoeste 0 -- -- 65
2019-09-24 17:00:00 26.3 11 Sur 21 Sur 0 -- -- 56
2019-09-24 16:00:00 27.6 9 Sur 18 Sudoeste 0 -- -- 53
2019-09-24 15:00:00 27.5 7 Sur 14 Sudoeste 0 -- -- 54
2019-09-24 14:00:00 26.8 5 Sur 14 Sudeste 0 -- -- 55
2019-09-24 13:00:00 25.3 4 Este 12 Este 0 -- -- 57
2019-09-24 12:00:00 24.1 4 Sudeste 9 Sudeste 0 -- -- 60
2019-09-24 11:00:00 22 4 Este 11 Nordeste 0 -- -- 65
2019-09-24 10:00:00 19.8 5 Este 10 Este 0 -- -- 75
2019-09-24 09:00:00 17.3 2 Sudeste 5 Este 0 -- -- 84
2019-09-24 08:00:00 15.5 0 Calma 6 Noroeste 0 -- -- 90
2019-09-24 07:00:00 15.6 4 Noroeste 7 Sur 0 -- -- 90
2019-09-24 06:00:00 15.9 0 Calma 6 Noroeste 0 -- -- 89
2019-09-24 05:00:00 16.3 0 Calma 6 Noroeste 0 -- -- 89
2019-09-24 04:00:00 16.6 3 Noroeste 6 Norte 0 -- -- 88
2019-09-24 03:00:00 17 3 Noroeste 12 Noroeste 0 -- -- 87
2019-09-24 02:00:00 17.6 0 Calma 7 Sudeste 0 -- -- 85
2019-09-24 01:00:00 18.5 0 Calma 5 Este 0 -- -- 82
2019-09-24 00:00:00 19.1 3 Norte 7 Noroeste 0 -- -- 78
2019-09-23 23:00:00 19.8 4 Noroeste 6 Norte 0 -- -- 77
2019-09-23 22:00:00 20.6 3 Norte 8 Nordeste 0 -- -- 73
2019-09-23 21:00:00 20.9 0 Calma 5 Este 0 -- -- 74
2019-09-23 20:00:00 21.3 4 Este 9 Sudeste 0 -- -- 71
2019-09-23 19:00:00 21.7 6 Sudeste 17 Sudeste 0 -- -- 70
2019-09-23 18:00:00 23.2 8 Sur 21 Sudeste 0 -- -- 64
2019-09-23 17:00:00 24.9 10 Sur 23 Sudeste 0 -- -- 57
2019-09-23 16:00:00 25.3 7 Sur 18 Sudeste 0 -- -- 52
2019-09-23 15:00:00 25.6 4 Este 26 Oeste 0 -- -- 46
2019-09-23 14:00:00 25.7 5 Sur 14 Oeste 0 -- -- 50
2019-09-23 13:00:00 25 5 Sudoeste 14 Sudeste 0 -- -- 53
2019-09-23 12:00:00 24.1 5 Sur 11 Sudoeste 0 -- -- 52
2019-09-23 11:00:00 22.6 4 Oeste 10 Noroeste 0 -- -- 55
2019-09-23 10:00:00 21 4 Norte 23 Norte 0 -- -- 64
2019-09-23 09:00:00 20 9 Norte 26 Norte 0 -- -- 59
2019-09-23 08:00:00 19.4 8 Norte 23 Norte 0 -- -- 63
2019-09-23 07:00:00 19.4 6 Norte 26 Nordeste 0 -- -- 65
2019-09-23 06:00:00 19.5 12 Nordeste 29 Nordeste 0 -- -- 64
2019-09-23 05:00:00 19.6 14 Nordeste 35 Nordeste 0 -- -- 63
2019-09-23 04:00:00 19.8 15 Nordeste 35 Nordeste 0 -- -- 63
2019-09-23 03:00:00 19.9 17 Nordeste 36 Nordeste 0 -- -- 63
2019-09-23 02:00:00 19.8 15 Nordeste 41 Nordeste 0 -- -- 64
2019-09-23 01:00:00 19.5 18 Nordeste 35 Norte 0 -- -- 66
2019-09-23 00:00:00 19.2 11 Nordeste 28 Nordeste 0 -- -- 68
2019-09-22 23:00:00 18.5 14 Nordeste 37 Nordeste 0 -- -- 72
2019-09-22 22:00:00 19.8 18 Nordeste 38 Nordeste 0 -- -- 62
2019-09-22 21:00:00 19.9 17 Nordeste 42 Nordeste 0 -- -- 63
2019-09-22 20:00:00 19.9 19 Nordeste 39 Nordeste 0 -- -- 65
2019-09-22 19:00:00 22.7 7 Nordeste 24 Nordeste 0 -- -- 65
2019-09-22 18:00:00 24.6 10 Nordeste 28 Nordeste 0 -- -- 61
2019-09-22 17:00:00 25.9 12 Nordeste 31 Norte 0 -- -- 65
2019-09-22 16:00:00 26.5 9 Nordeste 17 Nordeste 0 -- -- 65
2019-09-22 15:00:00 24.8 6 Este 17 Este 0 -- -- 75
2019-09-22 14:00:00 23.7 7 Este 17 Sudeste 0 -- -- 79
2019-09-22 13:00:00 24 4 Sur 11 Sur 0 -- -- 76
2019-09-22 12:00:00 22.6 3 Sudeste 12 Sudoeste 0 -- -- 80
2019-09-22 11:00:00 21.3 0 Calma 7 Sudoeste 0 -- -- 85
2019-09-22 10:00:00 19.1 0 Calma 8 Noroeste 0 -- -- 89
2019-09-22 09:00:00 17.5 2 Norte 9 Noroeste 0 -- -- 98
2019-09-22 08:00:00 16.7 4 Noroeste 7 Noroeste 0 -- -- 98
2019-09-22 07:00:00 17 0 Calma 4 Norte 0 -- -- 97
2019-09-22 06:00:00 16.9 3 Sur 6 Sur 0 -- -- 97
2019-09-22 05:00:00 17.2 3 Este 11 Nordeste 0 -- -- 97
2019-09-22 04:00:00 17.6 3 Noroeste 6 Noroeste 0 -- -- 96
2019-09-22 03:00:00 17.8 2 Oeste 7 Oeste 0 -- -- 96
2019-09-22 02:00:00 18 2 Sur 7 Sur 0 -- -- 96
2019-09-22 01:00:00 18.3 2 Oeste 6 Noroeste 0 -- -- 94
2019-09-22 00:00:00 19 2 Sudoeste 5 Sudoeste 0 -- -- 93
2019-09-21 23:00:00 19.8 2 Sudeste 13 Norte 0 -- -- 89
2019-09-21 22:00:00 19.8 3 Noroeste 14 Noroeste 0 -- -- 90
2019-09-21 21:00:00 19.9 0 Calma 7 Oeste 0 -- -- 93
2019-09-21 20:00:00 20.2 3 Noroeste 6 Noroeste 0 -- -- 91
2019-09-21 19:00:00 20.3 3 Sudoeste 8 Noroeste 0.2 -- -- 90
2019-09-21 18:00:00 19.9 0 Calma 6 Norte 0.2 -- -- 94
2019-09-21 17:00:00 19.7 3 Norte 7 Norte 2.6 -- -- 94
2019-09-21 16:00:00 19.8 3 Oeste 13 Sudoeste 0.4 -- -- 94
2019-09-21 15:00:00 19.9 6 Oeste 18 Sudeste 0 -- -- 94
2019-09-21 14:00:00 19.9 5 Sudeste 20 Nordeste 11.4 -- -- 94
2019-09-21 13:00:00 19.7 6 Norte 17 Norte 1 -- -- 94
2019-09-21 12:00:00 19.6 5 Sudeste 24 Sudeste 4.8 -- -- 94
2019-09-21 11:00:00 19.8 8 Sudoeste 25 Sudoeste 2 -- -- 93
2019-09-21 10:00:00 20.5 11 Sudoeste 20 Sudoeste 4.2 -- -- 93
2019-09-21 09:00:00 20.8 5 Sudoeste 13 Sudeste 0 -- -- 90
2019-09-21 08:00:00 20.8 7 Sudeste 18 Sudeste 0 -- -- 88
2019-09-21 07:00:00 20.9 3 Este 13 Nordeste 0 -- -- 83
2019-09-21 06:00:00 20.5 4 Nordeste 12 Nordeste 0 -- -- 83
2019-09-21 05:00:00 19.9 3 Noroeste 10 Oeste 0 -- -- 85
2019-09-21 04:00:00 20.8 4 Nordeste 10 Nordeste 0 -- -- 83
2019-09-21 03:00:00 20.9 4 Nordeste 9 Nordeste 0 -- -- 83
2019-09-21 02:00:00 20.5 2 Nordeste 6 Este 0 -- -- 84
2019-09-21 01:00:00 21.1 0 Calma 5 Noroeste 0 -- -- 83
2019-09-21 00:00:00 21.5 3 Noroeste 6 Oeste 0 -- -- 83
2019-09-20 23:00:00 21.6 2 Noroeste 8 Noroeste 0 -- -- 84
2019-09-20 22:00:00 21.9 2 Oeste 6 Oeste 0 -- -- 83
2019-09-20 21:00:00 21.9 3 Sudoeste 12 Sur 0 -- -- 83
2019-09-20 20:00:00 22.2 5 Sur 17 Sudeste 0 -- -- 79
2019-09-20 19:00:00 23.3 8 Sur 19 Sur 0 -- -- 73
2019-09-20 18:00:00 24.2 9 Sur 24 Sur 0 -- -- 70
2019-09-20 17:00:00 25.3 9 Sudeste 29 Sur 0 -- -- 69
2019-09-20 16:00:00 26.3 10 Sur 22 Sur 0 -- -- 62
2019-09-20 15:00:00 26.2 9 Sudeste 20 Sudeste 0 -- -- 64
2019-09-20 14:00:00 26.3 8 Sur 22 Sudeste 0 -- -- 63
2019-09-20 13:00:00 25.1 6 Sudeste 19 Sudoeste 0 -- -- 67
2019-09-20 12:00:00 24.6 6 Sur 14 Sur 0 -- -- 68
2019-09-20 11:00:00 23.7 5 Sur 12 Este 0 -- -- 68
2019-09-20 10:00:00 22.4 5 Este 10 Este 0 -- -- 64
2019-09-20 09:00:00 20.4 4 Nordeste 10 Nordeste 0 -- -- 72
2019-09-20 08:00:00 18.8 3 Norte 5 Noroeste 0 -- -- 78
2019-09-20 07:00:00 18.5 5 Noroeste 10 Norte 0 -- -- 79
2019-09-20 06:00:00 19.2 5 Nordeste 11 Nordeste 0 -- -- 77
2019-09-20 05:00:00 19.6 2 Norte 11 Nordeste 0 -- -- 74
2019-09-20 04:00:00 19.6 5 Nordeste 12 Este 0 -- -- 74
2019-09-20 03:00:00 18.5 3 Noroeste 5 Noroeste 0 -- -- 78
2019-09-20 02:00:00 19.2 2 Oeste 6 Noroeste 0 -- -- 76
2019-09-20 01:00:00 19.3 0 Calma 4 Sudoeste 0 -- -- 76
2019-09-20 00:00:00 20.1 2 Sudoeste 6 Norte 0 -- -- 74